createdAt,value
2022-12-27T00:00:01.067Z,8.40
2022-12-27T00:02:28.604Z,8.40
2022-12-27T00:04:56.095Z,8.40
2022-12-27T00:07:23.331Z,8.40
2022-12-27T00:09:51.079Z,8.40
2022-12-27T00:12:18.621Z,8.40
2022-12-27T00:14:46.121Z,8.40
2022-12-27T00:17:13.258Z,8.40
2022-12-27T00:19:40.769Z,8.50
2022-12-27T00:22:08.796Z,8.50
2022-12-27T00:24:36.311Z,8.40
2022-12-27T00:27:03.476Z,8.40
2022-12-27T00:29:31.205Z,8.40
2022-12-27T00:31:58.443Z,8.50
2022-12-27T00:34:25.953Z,8.50
2022-12-27T00:36:53.038Z,8.50
2022-12-27T00:39:20.595Z,8.50
2022-12-27T00:41:47.878Z,8.50
2022-12-27T00:44:15.321Z,8.50
2022-12-27T00:46:42.846Z,8.50
2022-12-27T00:49:10.732Z,8.50
2022-12-27T00:51:37.907Z,8.50
2022-12-27T00:54:05.528Z,8.50
2022-12-27T00:56:33.536Z,8.50
2022-12-27T00:59:03.984Z,8.50
2022-12-27T01:01:34.332Z,8.50
2022-12-27T01:04:02.850Z,8.50
2022-12-27T01:06:32.403Z,8.40
2022-12-27T01:09:01.611Z,8.40
2022-12-27T01:11:29.744Z,8.40
2022-12-27T01:13:59.335Z,8.30
2022-12-27T01:16:27.926Z,8.30
2022-12-27T01:18:55.939Z,8.30
2022-12-27T01:21:25.197Z,8.40
2022-12-27T01:23:53.297Z,8.40
2022-12-27T01:26:22.730Z,8.30
2022-12-27T01:28:51.375Z,8.30
2022-12-27T01:31:22.062Z,8.30
2022-12-27T01:33:49.737Z,8.30
2022-12-27T01:36:21.478Z,8.20
2022-12-27T01:38:50.009Z,8.20
2022-12-27T01:41:57.766Z,8.20
2022-12-27T01:44:40.522Z,8.20
2022-12-27T01:47:22.548Z,8.20
2022-12-27T01:49:57.606Z,8.20
2022-12-27T01:52:50.665Z,8.20
2022-12-27T01:55:23.607Z,8.10
2022-12-27T01:57:54.463Z,8.10
2022-12-27T02:00:22.046Z,8.10
2022-12-27T02:02:51.206Z,8.10
2022-12-27T02:05:21.275Z,8.10
2022-12-27T02:08:26.877Z,8.00
2022-12-27T02:10:56.292Z,8.10
2022-12-27T02:13:23.877Z,8.00
2022-12-27T02:15:51.400Z,8.10
2022-12-27T02:18:18.966Z,8.00
2022-12-27T02:21:07.000Z,8.00
2022-12-27T02:24:03.265Z,8.00
2022-12-27T02:26:51.178Z,7.90
2022-12-27T02:29:35.796Z,7.80
2022-12-27T02:32:44.962Z,7.80
2022-12-27T02:35:18.782Z,7.80
2022-12-27T02:37:51.780Z,7.70
2022-12-27T02:40:41.651Z,7.70
2022-12-27T02:43:28.329Z,7.70
2022-12-27T02:46:33.551Z,7.70
2022-12-27T02:49:20.012Z,7.70
2022-12-27T02:52:32.134Z,7.70
2022-12-27T02:55:14.343Z,7.70
2022-12-27T02:58:18.938Z,7.70
2022-12-27T03:01:05.125Z,7.70
2022-12-27T03:04:05.785Z,7.60
2022-12-27T03:06:42.252Z,7.60
2022-12-27T03:09:57.933Z,7.60
2022-12-27T03:13:05.215Z,7.60
2022-12-27T03:15:54.034Z,7.50
2022-12-27T03:18:28.514Z,7.40
2022-12-27T03:21:16.564Z,7.30
2022-12-27T03:24:04.700Z,7.30
2022-12-27T03:26:34.353Z,7.20
2022-12-27T03:29:22.745Z,7.20
2022-12-27T03:32:14.178Z,7.10
2022-12-27T03:34:46.390Z,7.10
2022-12-27T03:37:40.711Z,7.00
2022-12-27T03:40:11.784Z,7.00
2022-12-27T03:43:02.976Z,6.90
2022-12-27T03:45:59.499Z,6.80
2022-12-27T03:48:29.168Z,6.70
2022-12-27T03:51:05.308Z,6.60
2022-12-27T03:53:42.185Z,6.50
2022-12-27T03:56:10.440Z,6.40
2022-12-27T03:58:37.618Z,6.30
2022-12-27T04:01:05.480Z,6.20
2022-12-27T04:03:32.629Z,6.10
2022-12-27T04:06:00.128Z,6.10
2022-12-27T04:08:45.945Z,6.10
2022-12-27T04:11:32.216Z,6.00
2022-12-27T04:14:17.935Z,6.00
2022-12-27T04:17:04.024Z,5.90
2022-12-27T04:19:49.969Z,5.90
2022-12-27T04:22:35.931Z,5.80
2022-12-27T04:25:21.803Z,5.80
2022-12-27T04:28:07.709Z,5.80
2022-12-27T04:30:53.605Z,5.70
2022-12-27T04:33:39.419Z,5.70
2022-12-27T04:36:07.166Z,5.60
2022-12-27T04:38:34.640Z,5.60
2022-12-27T04:41:20.198Z,5.60
2022-12-27T04:44:06.143Z,5.50
2022-12-27T04:46:51.872Z,5.50
2022-12-27T04:49:43.582Z,5.50
2022-12-27T04:52:34.583Z,5.50
2022-12-27T04:55:09.528Z,5.50
2022-12-27T04:57:36.799Z,5.40
2022-12-27T05:00:24.438Z,5.40
2022-12-27T05:02:52.145Z,5.30
2022-12-27T05:05:20.441Z,5.30
2022-12-27T05:08:06.555Z,5.30
2022-12-27T05:10:52.655Z,5.30
2022-12-27T05:13:38.078Z,5.20
2022-12-27T05:16:05.956Z,5.20
2022-12-27T05:18:33.162Z,5.20
2022-12-27T05:21:05.520Z,5.10
2022-12-27T05:23:52.950Z,5.10
2022-12-27T05:26:25.900Z,5.00
2022-12-27T05:28:57.721Z,5.00
2022-12-27T05:31:27.460Z,5.00
2022-12-27T05:33:54.756Z,4.90
2022-12-27T05:36:22.438Z,4.90
2022-12-27T05:38:50.624Z,4.90
2022-12-27T05:41:18.953Z,4.80
2022-12-27T05:43:46.311Z,4.80
2022-12-27T05:46:19.542Z,4.80
2022-12-27T05:48:47.696Z,4.80
2022-12-27T05:51:21.218Z,4.70
2022-12-27T05:53:49.016Z,4.70
2022-12-27T05:56:20.915Z,4.60
2022-12-27T05:58:48.547Z,4.50
2022-12-27T06:01:17.872Z,4.50
2022-12-27T06:03:45.773Z,4.40
2022-12-27T06:06:13.668Z,4.40
2022-12-27T06:08:41.323Z,4.30
2022-12-27T06:11:15.235Z,4.30
2022-12-27T06:13:44.021Z,4.30
2022-12-27T06:16:12.696Z,4.20
2022-12-27T06:18:41.559Z,4.10
2022-12-27T06:21:11.939Z,4.10
2022-12-27T06:23:40.781Z,4.10
2022-12-27T06:26:19.790Z,4.00
2022-12-27T06:28:49.060Z,3.90
2022-12-27T06:31:18.332Z,3.90
2022-12-27T06:33:46.779Z,3.90
2022-12-27T06:36:16.490Z,3.80
2022-12-27T06:38:44.013Z,3.80
2022-12-27T06:41:13.577Z,3.70
2022-12-27T06:43:41.261Z,3.70
2022-12-27T06:46:17.072Z,3.60
2022-12-27T06:48:47.100Z,3.60
2022-12-27T06:51:16.343Z,3.60
2022-12-27T06:53:47.066Z,3.60
2022-12-27T06:56:17.507Z,3.50
2022-12-27T06:58:46.001Z,3.50
2022-12-27T07:01:16.813Z,3.40
2022-12-27T07:03:48.055Z,3.50
2022-12-27T07:06:15.550Z,3.40
2022-12-27T07:08:42.819Z,3.40
2022-12-27T07:11:12.083Z,3.30
2022-12-27T07:13:43.169Z,3.30
2022-12-27T07:16:13.604Z,3.30
2022-12-27T07:18:41.598Z,3.30
2022-12-27T07:21:12.037Z,3.30
2022-12-27T07:23:39.532Z,3.20
2022-12-27T07:26:11.227Z,3.30
2022-12-27T07:28:38.916Z,3.30
2022-12-27T07:31:08.388Z,3.30
2022-12-27T07:33:36.765Z,3.30
2022-12-27T07:36:06.289Z,3.40
2022-12-27T07:38:33.442Z,3.40
2022-12-27T07:41:02.415Z,3.50
2022-12-27T07:43:30.962Z,3.50
2022-12-27T07:46:30.660Z,3.50
2022-12-27T07:48:59.412Z,3.60
2022-12-27T07:51:29.177Z,3.60
2022-12-27T07:53:56.790Z,3.60
2022-12-27T07:56:27.155Z,3.60
2022-12-27T07:58:56.636Z,3.60
2022-12-27T08:01:26.150Z,3.60
2022-12-27T08:03:53.498Z,3.60
2022-12-27T08:06:29.377Z,3.60
2022-12-27T08:08:58.936Z,3.60
2022-12-27T08:11:26.758Z,3.60
2022-12-27T08:13:54.396Z,3.60
2022-12-27T08:16:26.422Z,3.70
2022-12-27T08:18:53.824Z,3.70
2022-12-27T08:21:21.826Z,3.80
2022-12-27T08:23:49.129Z,3.80
2022-12-27T08:26:16.568Z,3.90
2022-12-27T08:28:43.803Z,4.00
2022-12-27T08:31:13.385Z,4.10
2022-12-27T08:33:41.999Z,4.20
2022-12-27T08:36:36.712Z,4.20
2022-12-27T08:38:59.083Z,4.30
2022-12-27T08:41:26.555Z,4.30
2022-12-27T08:43:53.725Z,4.30
2022-12-27T08:46:21.488Z,4.40
2022-12-27T08:48:50.189Z,4.40
2022-12-27T08:51:30.240Z,4.50
2022-12-27T08:54:00.503Z,4.50
2022-12-27T08:56:28.044Z,4.50
2022-12-27T08:58:55.303Z,4.50
2022-12-27T09:01:22.910Z,4.60
2022-12-27T09:03:50.147Z,4.50
2022-12-27T09:06:20.313Z,4.60
2022-12-27T09:08:48.652Z,4.60
2022-12-27T09:11:19.633Z,4.60
2022-12-27T09:13:47.177Z,4.70
2022-12-27T09:16:17.962Z,4.80
2022-12-27T09:18:48.933Z,4.90
2022-12-27T09:21:18.140Z,4.90
2022-12-27T09:23:46.349Z,4.90
2022-12-27T09:26:16.336Z,4.90
2022-12-27T09:28:44.079Z,4.90
2022-12-27T09:31:13.171Z,4.90
2022-12-27T09:33:41.070Z,4.90
2022-12-27T09:36:14.899Z,4.90
2022-12-27T09:38:43.659Z,4.90
2022-12-27T09:41:40.915Z,4.90
2022-12-27T09:44:16.903Z,5.00
2022-12-27T09:46:48.503Z,4.90
2022-12-27T09:49:22.792Z,4.90
2022-12-27T09:52:05.299Z,4.90
2022-12-27T09:54:46.324Z,4.80
2022-12-27T09:57:58.898Z,4.80
2022-12-27T10:00:29.692Z,4.80
2022-12-27T10:03:05.960Z,4.80
2022-12-27T10:05:37.016Z,4.90
2022-12-27T10:08:43.667Z,4.90
2022-12-27T10:11:31.000Z,4.90
2022-12-27T10:14:01.658Z,4.90
2022-12-27T10:16:31.930Z,4.90
2022-12-27T10:19:23.692Z,4.90
2022-12-27T10:22:08.952Z,4.80
2022-12-27T10:24:39.435Z,4.80
2022-12-27T10:27:15.184Z,4.80
2022-12-27T10:29:43.647Z,4.80
2022-12-27T10:32:14.173Z,4.80
2022-12-27T10:34:41.835Z,4.90
2022-12-27T10:37:16.134Z,4.90
2022-12-27T10:39:44.190Z,4.90
2022-12-27T10:42:20.360Z,4.80
2022-12-27T10:44:47.764Z,4.80
2022-12-27T10:47:16.479Z,4.90
2022-12-27T10:50:09.940Z,4.90
2022-12-27T10:52:38.151Z,4.90
2022-12-27T10:55:05.914Z,4.80
2022-12-27T10:57:34.789Z,4.90
2022-12-27T11:00:20.321Z,4.90
2022-12-27T11:02:54.570Z,4.90
2022-12-27T11:05:25.824Z,5.00
2022-12-27T11:07:53.432Z,5.00
2022-12-27T11:10:22.255Z,5.00
2022-12-27T11:12:58.049Z,5.00
2022-12-27T11:15:27.712Z,5.10
2022-12-27T11:17:58.248Z,5.00
2022-12-27T11:20:37.555Z,5.10
2022-12-27T11:23:13.573Z,5.10
2022-12-27T11:25:59.658Z,5.10
2022-12-27T11:28:38.492Z,5.10
2022-12-27T11:31:10.229Z,5.20
2022-12-27T11:33:39.363Z,5.20
2022-12-27T11:36:11.995Z,5.30
2022-12-27T11:38:42.742Z,5.30
2022-12-27T11:41:29.058Z,5.30
2022-12-27T11:44:27.946Z,5.40
2022-12-27T11:47:10.741Z,5.40
2022-12-27T11:49:45.935Z,5.40
2022-12-27T11:52:36.807Z,5.40
2022-12-27T11:55:18.833Z,5.40
2022-12-27T11:58:13.855Z,5.40
2022-12-27T12:01:08.985Z,5.30
2022-12-27T12:03:55.275Z,5.30
2022-12-27T12:06:53.560Z,5.40
2022-12-27T12:09:33.787Z,5.40
2022-12-27T12:12:28.629Z,5.40
2022-12-27T12:15:20.681Z,5.40
2022-12-27T12:18:03.242Z,5.30
2022-12-27T12:20:50.313Z,5.30
2022-12-27T12:23:36.401Z,5.30
2022-12-27T12:26:23.845Z,5.30
2022-12-27T12:29:35.564Z,5.30
2022-12-27T12:32:25.797Z,5.30
2022-12-27T12:35:07.996Z,5.20
2022-12-27T12:37:50.067Z,5.20
2022-12-27T12:40:47.312Z,5.20
2022-12-27T12:43:52.300Z,5.20
2022-12-27T12:46:27.751Z,5.10
2022-12-27T12:49:14.431Z,5.20
2022-12-27T12:51:59.691Z,5.20
2022-12-27T12:54:32.929Z,5.20
2022-12-27T12:57:28.409Z,5.20
2022-12-27T13:00:12.637Z,5.20
2022-12-27T13:03:04.195Z,5.10
2022-12-27T13:06:10.697Z,5.10
2022-12-27T13:08:40.538Z,5.10
2022-12-27T13:11:08.166Z,5.10
2022-12-27T13:13:50.053Z,5.10
2022-12-27T13:16:41.037Z,5.10
2022-12-27T13:19:32.407Z,5.00
2022-12-27T13:21:59.860Z,5.10
2022-12-27T13:24:45.843Z,5.10
2022-12-27T13:27:51.651Z,5.10
2022-12-27T13:30:36.086Z,5.10
2022-12-27T13:33:18.532Z,5.10
2022-12-27T13:36:03.704Z,5.00
2022-12-27T13:38:43.462Z,5.00
2022-12-27T13:41:37.385Z,5.00
2022-12-27T13:44:07.680Z,5.00
2022-12-27T13:47:02.671Z,4.90
2022-12-27T13:49:49.458Z,4.90
2022-12-27T13:52:16.761Z,4.90
2022-12-27T13:54:59.522Z,4.80
2022-12-27T13:57:44.399Z,4.80
2022-12-27T14:00:23.561Z,4.80
2022-12-27T14:03:28.262Z,4.90
2022-12-27T14:06:01.938Z,4.90
2022-12-27T14:08:54.038Z,4.80
2022-12-27T14:11:42.714Z,4.80
2022-12-27T14:14:15.008Z,4.80
2022-12-27T14:16:45.421Z,4.70
2022-12-27T14:19:40.325Z,4.70
2022-12-27T14:22:07.805Z,4.70
2022-12-27T14:24:50.459Z,4.70
2022-12-27T14:27:55.439Z,4.70
2022-12-27T14:30:41.439Z,4.70
2022-12-27T14:33:40.048Z,4.70
2022-12-27T14:36:26.028Z,4.70
2022-12-27T14:39:25.543Z,4.70
2022-12-27T14:42:08.193Z,4.70
2022-12-27T14:44:52.455Z,4.70
2022-12-27T14:47:38.469Z,4.60
2022-12-27T14:50:24.899Z,4.60
2022-12-27T14:53:19.098Z,4.60
2022-12-27T14:56:26.445Z,4.60
2022-12-27T14:58:59.235Z,4.60
2022-12-27T15:01:57.272Z,4.60
2022-12-27T15:04:52.511Z,4.60
2022-12-27T15:08:15.383Z,4.70
2022-12-27T15:10:48.521Z,4.60
2022-12-27T15:13:38.767Z,4.60
2022-12-27T15:16:53.211Z,4.60
2022-12-27T15:19:38.262Z,4.60
2022-12-27T15:22:27.464Z,4.60
2022-12-27T15:25:42.161Z,4.60
2022-12-27T15:28:30.700Z,4.60
2022-12-27T15:31:12.699Z,4.60
2022-12-27T15:34:07.345Z,4.60
2022-12-27T15:36:40.234Z,4.60
2022-12-27T15:39:33.357Z,4.60
2022-12-27T15:42:12.641Z,4.60
2022-12-27T15:44:58.488Z,4.60
2022-12-27T15:47:55.560Z,4.60
2022-12-27T15:50:54.322Z,4.60
2022-12-27T15:53:54.652Z,4.50
2022-12-27T15:56:46.955Z,4.50
2022-12-27T15:59:40.086Z,4.50
2022-12-27T16:02:18.565Z,4.50
2022-12-27T16:04:47.953Z,4.40
2022-12-27T16:07:52.668Z,4.40
2022-12-27T16:10:35.529Z,4.40
2022-12-27T16:13:34.491Z,4.40
2022-12-27T16:16:29.038Z,4.40
2022-12-27T16:19:25.102Z,4.30
2022-12-27T16:21:52.724Z,4.30
2022-12-27T16:24:27.143Z,4.30
2022-12-27T16:27:04.809Z,4.30
2022-12-27T16:29:43.623Z,4.30
2022-12-27T16:32:13.975Z,4.30
2022-12-27T16:34:43.585Z,4.40
2022-12-27T16:37:24.893Z,4.30
2022-12-27T16:40:07.456Z,4.30
2022-12-27T16:42:58.085Z,4.30
2022-12-27T16:45:32.803Z,4.20
2022-12-27T16:48:15.622Z,4.20
2022-12-27T16:51:38.345Z,4.20
2022-12-27T16:54:31.269Z,4.10
2022-12-27T16:57:25.817Z,4.10
2022-12-27T17:00:22.677Z,4.10
2022-12-27T17:02:50.166Z,4.10
2022-12-27T17:05:17.664Z,4.00
2022-12-27T17:07:52.398Z,4.00
2022-12-27T17:10:34.927Z,4.00
2022-12-27T17:13:22.443Z,4.00
2022-12-27T17:16:06.300Z,3.90
2022-12-27T17:18:45.444Z,3.90
2022-12-27T17:21:29.629Z,3.90
2022-12-27T17:24:01.324Z,3.90
2022-12-27T17:27:06.094Z,3.90
2022-12-27T17:29:51.875Z,3.90
2022-12-27T17:32:22.573Z,3.90
2022-12-27T17:35:29.174Z,4.00
2022-12-27T17:38:18.372Z,4.00
2022-12-27T17:40:59.985Z,3.90
2022-12-27T17:44:17.990Z,4.00
2022-12-27T17:47:22.626Z,4.00
2022-12-27T17:49:51.083Z,4.00
2022-12-27T17:52:38.796Z,4.00
2022-12-27T17:55:40.779Z,4.00
2022-12-27T17:58:13.505Z,3.90
2022-12-27T18:00:51.402Z,3.90
2022-12-27T18:03:18.573Z,4.00
2022-12-27T18:05:49.136Z,4.00
2022-12-27T18:08:27.938Z,4.00
2022-12-27T18:10:57.148Z,4.00
2022-12-27T18:13:27.511Z,4.00
2022-12-27T18:15:55.549Z,4.00
2022-12-27T18:18:32.055Z,4.10
2022-12-27T18:21:04.307Z,4.10
2022-12-27T18:23:42.867Z,4.10
2022-12-27T18:26:14.200Z,4.20
2022-12-27T18:28:42.919Z,4.20
2022-12-27T18:31:42.220Z,4.20
2022-12-27T18:34:24.708Z,4.20
2022-12-27T18:37:21.628Z,4.20
2022-12-27T18:39:53.431Z,4.20
2022-12-27T18:42:36.508Z,4.20
2022-12-27T18:45:29.390Z,4.30
2022-12-27T18:48:00.343Z,4.30
2022-12-27T18:50:30.514Z,4.30
2022-12-27T18:53:03.352Z,4.30
2022-12-27T18:55:32.198Z,4.30
2022-12-27T18:58:25.850Z,4.30
2022-12-27T19:01:03.845Z,4.30
2022-12-27T19:03:38.231Z,4.30
2022-12-27T19:06:13.115Z,4.30
2022-12-27T19:08:51.385Z,4.30
2022-12-27T19:11:26.181Z,4.30
2022-12-27T19:13:58.411Z,4.30
2022-12-27T19:16:31.402Z,4.30
2022-12-27T19:19:07.503Z,4.30
2022-12-27T19:21:39.320Z,4.30
2022-12-27T19:24:30.353Z,4.30
2022-12-27T19:27:24.823Z,4.30
2022-12-27T19:29:53.180Z,4.30
2022-12-27T19:32:28.947Z,4.30
2022-12-27T19:35:00.121Z,4.30
2022-12-27T19:37:29.799Z,4.30
2022-12-27T19:39:58.564Z,4.30
2022-12-27T19:42:31.836Z,4.30
2022-12-27T19:44:59.416Z,4.30
2022-12-27T19:47:27.596Z,4.30
2022-12-27T19:49:55.235Z,4.30
2022-12-27T19:52:24.964Z,4.30
2022-12-27T19:55:04.701Z,4.30
2022-12-27T19:57:31.943Z,4.20
2022-12-27T19:59:59.775Z,4.20
2022-12-27T20:02:27.222Z,4.20
2022-12-27T20:04:54.962Z,4.20
2022-12-27T20:07:25.411Z,4.20
2022-12-27T20:09:53.130Z,4.20
2022-12-27T20:12:20.304Z,4.20
2022-12-27T20:14:48.320Z,4.20
2022-12-27T20:17:15.563Z,4.20
2022-12-27T20:19:43.056Z,4.20
2022-12-27T20:22:10.194Z,4.30
2022-12-27T20:24:38.019Z,4.20
2022-12-27T20:27:05.855Z,4.20
2022-12-27T20:29:33.383Z,4.20
2022-12-27T20:32:00.641Z,4.20
2022-12-27T20:34:28.220Z,4.20
2022-12-27T20:36:55.587Z,4.30
2022-12-27T20:39:23.208Z,4.30
2022-12-27T20:41:50.483Z,4.20
2022-12-27T20:44:19.218Z,4.20
2022-12-27T20:46:47.632Z,4.20
2022-12-27T20:49:15.110Z,4.20
2022-12-27T20:51:42.350Z,4.10
2022-12-27T20:54:11.989Z,4.10
2022-12-27T20:56:39.148Z,4.10
2022-12-27T20:59:07.160Z,4.00
2022-12-27T21:01:34.482Z,4.00
2022-12-27T21:04:02.473Z,4.00
2022-12-27T21:06:30.149Z,4.00
2022-12-27T21:09:00.925Z,4.00
2022-12-27T21:11:31.583Z,3.90
2022-12-27T21:14:01.222Z,3.80
2022-12-27T21:16:30.259Z,3.80
2022-12-27T21:18:58.094Z,3.80
2022-12-27T21:21:28.759Z,3.70
2022-12-27T21:23:59.795Z,3.70
2022-12-27T21:26:38.732Z,3.60
2022-12-27T21:29:08.350Z,3.60
2022-12-27T21:31:36.930Z,3.60
2022-12-27T21:34:04.859Z,3.60
2022-12-27T21:36:34.128Z,3.50
2022-12-27T21:39:04.835Z,3.50
2022-12-27T21:41:34.733Z,3.50
2022-12-27T21:44:02.825Z,3.40
2022-12-27T21:46:32.747Z,3.40
2022-12-27T21:49:02.366Z,3.30
2022-12-27T21:51:31.033Z,3.30
2022-12-27T21:53:58.897Z,3.20
2022-12-27T21:56:26.566Z,3.20
2022-12-27T21:58:57.635Z,3.10
2022-12-27T22:01:28.455Z,3.10
2022-12-27T22:03:57.488Z,3.10
2022-12-27T22:06:36.700Z,3.10
2022-12-27T22:09:08.881Z,3.10
2022-12-27T22:11:37.250Z,3.00
2022-12-27T22:14:05.314Z,3.00
2022-12-27T22:16:35.748Z,3.10
2022-12-27T22:19:06.139Z,3.10
2022-12-27T22:21:35.874Z,3.00
2022-12-27T22:24:04.119Z,3.10
2022-12-27T22:26:41.913Z,3.10
2022-12-27T22:29:09.422Z,3.10
2022-12-27T22:31:38.028Z,3.10
2022-12-27T22:34:06.593Z,3.10
2022-12-27T22:36:34.873Z,3.10
2022-12-27T22:39:02.874Z,3.10
2022-12-27T22:41:35.458Z,3.10
2022-12-27T22:44:10.032Z,3.10
2022-12-27T22:47:15.825Z,3.20
2022-12-27T22:49:26.422Z,3.20
2022-12-27T22:51:53.559Z,3.20
2022-12-27T22:54:21.243Z,3.20
2022-12-27T22:57:08.441Z,3.20
2022-12-27T22:59:35.957Z,3.20
2022-12-27T23:02:03.149Z,3.20
2022-12-27T23:04:30.846Z,3.20
2022-12-27T23:07:01.710Z,3.10
2022-12-27T23:09:29.462Z,3.10
2022-12-27T23:11:56.564Z,3.10
2022-12-27T23:14:24.146Z,3.10
2022-12-27T23:16:51.457Z,3.10
2022-12-27T23:19:21.145Z,3.10
2022-12-27T23:21:49.247Z,3.00
2022-12-27T23:24:16.760Z,3.00
2022-12-27T23:26:43.987Z,3.00
2022-12-27T23:29:13.000Z,2.90
2022-12-27T23:31:54.255Z,2.90
2022-12-27T23:34:27.753Z,2.90
2022-12-27T23:36:57.704Z,2.90
2022-12-27T23:39:25.844Z,2.90
2022-12-27T23:41:53.299Z,2.90
2022-12-27T23:44:34.366Z,2.90
2022-12-27T23:47:06.455Z,2.90
2022-12-27T23:49:35.144Z,2.90
2022-12-27T23:52:02.606Z,3.00
2022-12-27T23:54:30.505Z,3.00
2022-12-27T23:56:57.786Z,3.00
2022-12-27T23:59:25.345Z,3.00
